createdAt,value
2019-06-15T00:00:55.588Z,25.80
2019-06-15T00:02:00.662Z,25.80
2019-06-15T00:03:05.218Z,25.80
2019-06-15T00:04:10.278Z,25.80
2019-06-15T00:05:14.810Z,25.80
2019-06-15T00:06:19.886Z,25.80
2019-06-15T00:07:24.360Z,25.80
2019-06-15T00:08:29.417Z,25.80
2019-06-15T00:09:33.886Z,25.70
2019-06-15T00:10:38.942Z,25.70
2019-06-15T00:11:43.496Z,25.70
2019-06-15T00:12:49.704Z,25.70
2019-06-15T00:13:54.176Z,25.70
2019-06-15T00:14:59.249Z,25.70
2019-06-15T00:16:03.784Z,25.70
2019-06-15T00:17:08.945Z,25.70
2019-06-15T00:18:13.409Z,25.70
2019-06-15T00:19:18.523Z,25.70
2019-06-15T00:20:23.006Z,25.70
2019-06-15T00:21:28.064Z,25.70
2019-06-15T00:22:32.633Z,25.70
2019-06-15T00:23:37.752Z,25.70
2019-06-15T00:24:42.217Z,25.60
2019-06-15T00:25:47.300Z,25.60
2019-06-15T00:26:51.843Z,25.60
2019-06-15T00:27:56.940Z,25.60
2019-06-15T00:29:01.426Z,25.60
2019-06-15T00:30:10.723Z,25.60
2019-06-15T00:31:15.199Z,25.60
2019-06-15T00:32:20.472Z,25.60
2019-06-15T00:33:24.960Z,25.60
2019-06-15T00:34:30.036Z,25.60
2019-06-15T00:35:34.569Z,25.60
2019-06-15T00:36:39.626Z,25.60
2019-06-15T00:37:44.102Z,25.60
2019-06-15T00:38:49.164Z,25.60
2019-06-15T00:39:53.626Z,25.60
2019-06-15T00:40:58.695Z,25.50
2019-06-15T00:42:03.295Z,25.50
2019-06-15T00:43:08.411Z,25.50
2019-06-15T00:44:12.882Z,25.50
2019-06-15T00:45:17.935Z,25.50
2019-06-15T00:46:22.484Z,25.50
2019-06-15T00:47:27.589Z,25.50
2019-06-15T00:48:32.074Z,25.50
2019-06-15T00:49:37.115Z,25.50
2019-06-15T00:50:41.650Z,25.50
2019-06-15T00:51:46.697Z,25.50
2019-06-15T00:52:51.182Z,25.50
2019-06-15T00:53:56.312Z,25.50
2019-06-15T00:55:00.884Z,25.50
2019-06-15T00:56:06.030Z,25.50
2019-06-15T00:57:10.516Z,25.50
2019-06-15T00:58:15.633Z,25.50
2019-06-15T00:59:20.121Z,25.50
2019-06-15T01:00:25.256Z,25.50
2019-06-15T01:01:29.738Z,25.50
2019-06-15T01:02:34.891Z,25.50
2019-06-15T01:03:39.426Z,25.50
2019-06-15T01:04:44.481Z,25.50
2019-06-15T01:05:48.972Z,25.50
2019-06-15T01:06:54.028Z,25.60
2019-06-15T01:07:58.517Z,25.60
2019-06-15T01:09:03.748Z,25.60
2019-06-15T01:10:08.947Z,25.60
2019-06-15T01:11:14.093Z,25.60
2019-06-15T01:12:18.843Z,25.60
2019-06-15T01:13:23.898Z,25.60
2019-06-15T01:14:28.377Z,25.60
2019-06-15T01:15:33.619Z,25.60
2019-06-15T01:16:38.203Z,25.60
2019-06-15T01:17:43.260Z,25.60
2019-06-15T01:18:47.732Z,25.60
2019-06-15T01:19:52.805Z,25.60
2019-06-15T01:20:57.374Z,25.70
2019-06-15T01:22:02.461Z,25.60
2019-06-15T01:23:06.945Z,25.70
2019-06-15T01:24:12.041Z,25.70
2019-06-15T01:25:16.704Z,25.70
2019-06-15T01:26:21.756Z,25.70
2019-06-15T01:27:26.316Z,25.70
2019-06-15T01:28:31.375Z,25.70
2019-06-15T01:29:35.869Z,25.70
2019-06-15T01:30:40.920Z,25.70
2019-06-15T01:31:45.574Z,25.70
2019-06-15T01:32:50.759Z,25.70
2019-06-15T01:33:55.220Z,25.70
2019-06-15T01:35:00.268Z,25.70
2019-06-15T01:36:05.606Z,25.70
2019-06-15T01:37:10.648Z,25.70
2019-06-15T01:38:15.112Z,25.70
2019-06-15T01:39:20.250Z,25.70
2019-06-15T01:40:24.825Z,25.70
2019-06-15T01:41:29.945Z,25.70
2019-06-15T01:42:34.556Z,25.70
2019-06-15T01:43:39.693Z,25.60
2019-06-15T01:44:44.236Z,25.70
2019-06-15T01:45:49.304Z,25.60
2019-06-15T01:46:53.800Z,25.60
2019-06-15T01:47:58.863Z,25.70
2019-06-15T01:49:03.362Z,25.60
2019-06-15T01:50:09.017Z,25.60
2019-06-15T01:51:13.571Z,25.60
2019-06-15T01:52:18.639Z,25.60
2019-06-15T01:53:23.112Z,25.60
2019-06-15T01:54:28.174Z,25.60
2019-06-15T01:55:32.645Z,25.50
2019-06-15T01:56:37.714Z,25.50
2019-06-15T01:57:42.201Z,25.50
2019-06-15T01:58:47.349Z,25.50
2019-06-15T01:59:51.819Z,25.40
2019-06-15T02:00:56.952Z,25.50
2019-06-15T02:02:01.423Z,25.40
2019-06-15T02:03:06.570Z,25.40
2019-06-15T02:04:11.037Z,25.40
2019-06-15T02:05:16.431Z,25.40
2019-06-15T02:06:20.925Z,25.40
2019-06-15T02:07:25.976Z,25.40
2019-06-15T02:08:30.506Z,25.40
2019-06-15T02:09:35.590Z,25.40
2019-06-15T02:10:40.064Z,25.40
2019-06-15T02:11:45.132Z,25.40
2019-06-15T02:12:49.612Z,25.40
2019-06-15T02:13:54.728Z,25.40
2019-06-15T02:14:59.234Z,25.30
2019-06-15T02:16:04.442Z,25.30
2019-06-15T02:17:09.016Z,25.30
2019-06-15T02:18:14.067Z,25.30
2019-06-15T02:19:18.560Z,25.30
2019-06-15T02:20:23.762Z,25.30
2019-06-15T02:21:28.248Z,25.30
2019-06-15T02:22:33.366Z,25.20
2019-06-15T02:23:37.848Z,25.30
2019-06-15T02:24:42.907Z,25.20
2019-06-15T02:25:47.415Z,25.20
2019-06-15T02:26:52.475Z,25.20
2019-06-15T02:27:56.956Z,25.20
2019-06-15T02:29:02.120Z,25.20
2019-06-15T02:30:07.210Z,25.20
2019-06-15T02:31:12.379Z,25.10
2019-06-15T02:32:16.849Z,25.10
2019-06-15T02:33:21.934Z,25.10
2019-06-15T02:37:39.212Z,25.00
2019-06-15T02:38:43.936Z,25.00
2019-06-15T02:39:48.833Z,25.00
2019-06-15T02:40:53.500Z,25.00
2019-06-15T02:41:58.361Z,24.90
2019-06-15T02:43:03.109Z,24.90
2019-06-15T02:44:08.021Z,24.90
2019-06-15T02:45:13.140Z,24.90
2019-06-15T02:46:17.995Z,24.90
2019-06-15T02:47:22.738Z,24.80
2019-06-15T02:48:27.602Z,24.80
2019-06-15T02:49:32.262Z,24.80
2019-06-15T02:50:37.788Z,24.80
2019-06-15T02:51:42.686Z,24.80
2019-06-15T02:52:47.634Z,24.80
2019-06-15T02:53:52.370Z,24.80
2019-06-15T02:54:57.224Z,24.80
2019-06-15T02:56:01.925Z,24.80
2019-06-15T02:57:06.850Z,24.80
2019-06-15T02:58:11.518Z,24.70
2019-06-15T02:59:16.373Z,24.70
2019-06-15T03:00:26.812Z,24.70
2019-06-15T03:01:31.681Z,24.70
2019-06-15T03:02:36.511Z,24.70
2019-06-15T03:03:41.422Z,24.70
2019-06-15T03:04:46.166Z,24.70
2019-06-15T03:05:51.224Z,24.60
2019-06-15T03:06:55.988Z,24.60
2019-06-15T03:08:00.840Z,24.60
2019-06-15T03:09:06.746Z,24.60
2019-06-15T03:10:12.037Z,24.60
2019-06-15T03:11:16.790Z,24.60
2019-06-15T03:12:22.748Z,24.60
2019-06-15T03:13:27.893Z,24.60
2019-06-15T03:14:32.976Z,24.50
2019-06-15T03:15:37.663Z,24.50
2019-06-15T03:16:42.599Z,24.50
2019-06-15T03:17:47.267Z,24.50
2019-06-15T03:18:52.143Z,24.50
2019-06-15T03:19:56.816Z,24.50
2019-06-15T03:21:01.685Z,24.40
2019-06-15T03:22:06.671Z,24.40
2019-06-15T03:23:11.580Z,24.40
2019-06-15T03:24:16.238Z,24.40
2019-06-15T03:25:21.236Z,24.40
2019-06-15T03:26:25.906Z,24.40
2019-06-15T03:27:30.780Z,24.40
2019-06-15T03:28:35.480Z,24.30
2019-06-15T03:29:40.417Z,24.30
2019-06-15T03:30:45.093Z,24.30
2019-06-15T03:31:49.956Z,24.30
2019-06-15T03:32:54.731Z,24.30
2019-06-15T03:33:59.587Z,24.20
2019-06-15T03:35:05.798Z,24.20
2019-06-15T03:36:10.680Z,24.20
2019-06-15T03:37:15.338Z,24.20
2019-06-15T03:38:20.212Z,24.20
2019-06-15T03:39:24.916Z,24.20
2019-06-15T03:40:29.760Z,24.20
2019-06-15T03:41:34.434Z,24.20
2019-06-15T03:42:39.288Z,24.20
2019-06-15T03:43:43.970Z,24.10
2019-06-15T03:44:48.833Z,24.10
2019-06-15T03:45:53.496Z,24.10
2019-06-15T03:46:58.366Z,24.10
2019-06-15T03:48:03.028Z,24.10
2019-06-15T03:49:07.871Z,24.10
2019-06-15T03:50:14.184Z,24.10
2019-06-15T03:51:19.044Z,24.00
2019-06-15T03:52:23.738Z,24.00
2019-06-15T03:53:28.687Z,24.00
2019-06-15T03:54:33.356Z,24.00
2019-06-15T03:55:40.492Z,23.90
2019-06-15T03:56:44.951Z,23.90
2019-06-15T03:57:49.815Z,23.90
2019-06-15T03:58:54.485Z,23.90
2019-06-15T03:59:59.360Z,23.90
2019-06-15T04:01:15.987Z,23.90
2019-06-15T04:02:20.868Z,23.80
2019-06-15T04:03:25.549Z,23.80
2019-06-15T04:04:30.403Z,23.80
2019-06-15T04:05:35.057Z,23.80
2019-06-15T04:06:39.916Z,23.80
2019-06-15T04:07:44.607Z,23.80
2019-06-15T04:08:49.474Z,23.70
2019-06-15T04:09:54.190Z,24.00
2019-06-15T04:10:59.043Z,23.70
2019-06-15T04:12:03.809Z,23.70
2019-06-15T04:13:08.767Z,23.70
2019-06-15T04:14:13.500Z,23.70
2019-06-15T04:15:18.365Z,23.60
2019-06-15T04:16:23.100Z,23.60
2019-06-15T04:17:27.946Z,23.60
2019-06-15T04:18:32.718Z,23.60
2019-06-15T04:19:37.592Z,23.60
2019-06-15T04:20:42.251Z,23.60
2019-06-15T04:21:47.120Z,23.60
2019-06-15T04:22:51.842Z,23.60
2019-06-15T04:23:56.712Z,23.60
2019-06-15T04:25:01.382Z,23.60
2019-06-15T04:26:06.318Z,23.60
2019-06-15T04:27:10.991Z,23.60
2019-06-15T04:28:15.888Z,23.60
2019-06-15T04:29:20.560Z,23.60
2019-06-15T04:30:25.412Z,23.60
2019-06-15T04:31:30.102Z,23.60
2019-06-15T04:32:34.982Z,23.60
2019-06-15T04:33:39.709Z,23.60
2019-06-15T04:34:44.605Z,23.60
2019-06-15T04:35:49.290Z,23.60
2019-06-15T04:36:54.144Z,23.60
2019-06-15T04:37:58.843Z,23.50
2019-06-15T04:39:05.116Z,23.60
2019-06-15T04:40:10.160Z,23.60
2019-06-15T04:41:15.150Z,23.60
2019-06-15T04:42:19.889Z,23.60
2019-06-15T04:43:24.743Z,23.50
2019-06-15T04:44:29.421Z,23.50
2019-06-15T04:45:34.271Z,23.50
2019-06-15T04:46:38.939Z,23.50
2019-06-15T04:47:43.812Z,23.50
2019-06-15T04:48:48.507Z,23.50
2019-06-15T04:49:53.376Z,23.50
2019-06-15T04:50:58.044Z,23.50
2019-06-15T04:52:02.902Z,23.50
2019-06-15T04:53:07.551Z,23.50
2019-06-15T04:54:12.408Z,23.50
2019-06-15T04:55:17.137Z,23.50
2019-06-15T04:56:22.290Z,23.50
2019-06-15T04:57:26.969Z,23.50
2019-06-15T04:58:31.851Z,23.50
2019-06-15T04:59:36.547Z,23.50
2019-06-15T05:00:41.743Z,23.50
2019-06-15T05:01:46.497Z,23.50
2019-06-15T05:02:51.365Z,23.50
2019-06-15T05:03:56.067Z,23.50
2019-06-15T05:05:00.932Z,23.50
2019-06-15T05:06:05.604Z,23.50
2019-06-15T05:07:10.537Z,23.50
2019-06-15T05:08:15.214Z,23.50
2019-06-15T05:09:20.108Z,23.50
2019-06-15T05:10:24.861Z,23.50
2019-06-15T05:11:29.779Z,23.50
2019-06-15T05:12:34.829Z,23.50
2019-06-15T05:13:39.842Z,23.50
2019-06-15T05:14:44.660Z,23.50
2019-06-15T05:15:49.529Z,23.50
2019-06-15T05:16:54.193Z,23.60
2019-06-15T05:17:59.227Z,23.50
2019-06-15T05:19:03.920Z,23.50
2019-06-15T05:20:09.296Z,23.60
2019-06-15T05:21:14.047Z,23.60
2019-06-15T05:22:18.912Z,23.60
2019-06-15T05:23:23.660Z,23.60
2019-06-15T05:24:28.502Z,23.60
2019-06-15T05:25:33.186Z,23.70
2019-06-15T05:26:38.140Z,23.80
2019-06-15T05:27:42.814Z,23.80
2019-06-15T05:28:47.679Z,23.80
2019-06-15T05:29:52.362Z,23.90
2019-06-15T05:30:57.218Z,23.90
2019-06-15T05:32:02.070Z,24.00
2019-06-15T05:33:07.024Z,24.00
2019-06-15T05:34:11.684Z,24.10
2019-06-15T05:35:16.624Z,24.10
2019-06-15T05:36:21.289Z,24.20
2019-06-15T05:37:26.166Z,24.20
2019-06-15T05:38:30.946Z,24.20
2019-06-15T05:39:35.786Z,24.30
2019-06-15T05:40:40.462Z,24.40
2019-06-15T05:41:45.330Z,24.40
2019-06-15T05:42:50.006Z,24.40
2019-06-15T05:43:54.858Z,24.50
2019-06-15T05:44:59.537Z,24.50
2019-06-15T05:46:04.796Z,24.60
2019-06-15T05:47:09.724Z,24.60
2019-06-15T05:48:14.559Z,24.70
2019-06-15T05:49:19.319Z,24.70
2019-06-15T05:50:24.243Z,24.70
2019-06-15T05:51:28.985Z,24.80
2019-06-15T05:52:33.912Z,24.80
2019-06-15T05:53:38.573Z,24.80
2019-06-15T05:54:43.449Z,24.80
2019-06-15T05:55:48.186Z,24.90
2019-06-15T05:56:53.029Z,24.90
2019-06-15T05:57:57.722Z,24.90
2019-06-15T05:59:02.580Z,25.00
2019-06-15T06:00:13.368Z,25.00
2019-06-15T06:01:18.220Z,25.00
2019-06-15T06:02:24.859Z,25.00
2019-06-15T06:03:29.513Z,25.00
2019-06-15T06:04:34.177Z,25.10
2019-06-15T06:05:39.064Z,25.10
2019-06-15T06:06:43.734Z,25.20
2019-06-15T06:07:48.572Z,25.10
2019-06-15T06:08:53.256Z,25.20
2019-06-15T06:09:58.110Z,25.20
2019-06-15T06:11:02.821Z,25.20
2019-06-15T06:12:07.699Z,25.20
2019-06-15T06:13:12.368Z,25.30
2019-06-15T06:14:17.255Z,25.30
2019-06-15T06:15:22.066Z,25.30
2019-06-15T06:16:26.944Z,25.30
2019-06-15T06:17:32.349Z,25.40
2019-06-15T06:18:37.223Z,25.40
2019-06-15T06:19:41.881Z,25.40
2019-06-15T06:20:46.742Z,25.40
2019-06-15T06:21:51.409Z,25.40
2019-06-15T06:22:56.280Z,25.40
2019-06-15T06:24:01.010Z,25.50
2019-06-15T06:25:10.601Z,25.50
2019-06-15T06:26:15.271Z,25.50
2019-06-15T06:27:20.112Z,25.50
2019-06-15T06:28:24.796Z,25.50
2019-06-15T06:29:29.661Z,25.50
2019-06-15T06:30:34.325Z,25.60
2019-06-15T06:31:39.193Z,25.60
2019-06-15T06:32:43.854Z,25.60
2019-06-15T06:33:48.730Z,25.60
2019-06-15T06:34:53.478Z,25.60
2019-06-15T06:35:58.419Z,25.60
2019-06-15T06:37:03.082Z,25.60
2019-06-15T06:38:07.961Z,25.60
2019-06-15T06:39:12.644Z,25.60
2019-06-15T06:40:18.050Z,25.60
2019-06-15T06:41:22.720Z,25.60
2019-06-15T06:42:27.640Z,25.70
2019-06-15T06:43:32.299Z,25.70
2019-06-15T06:44:37.168Z,25.70
2019-06-15T06:45:41.862Z,25.70
2019-06-15T06:46:46.702Z,25.70
2019-06-15T06:47:51.382Z,25.80
2019-06-15T06:48:56.234Z,25.80
2019-06-15T06:50:01.179Z,25.80
2019-06-15T06:51:06.051Z,25.80
2019-06-15T06:52:10.799Z,25.80
2019-06-15T06:53:15.648Z,25.80
2019-06-15T06:54:20.320Z,25.80
2019-06-15T06:55:25.269Z,25.90
2019-06-15T06:56:29.956Z,25.90
2019-06-15T06:57:34.977Z,25.90
2019-06-15T06:58:39.648Z,25.90
2019-06-15T06:59:44.550Z,25.90
2019-06-15T07:00:49.241Z,25.90
2019-06-15T07:01:54.330Z,25.90
2019-06-15T07:02:59.290Z,25.90
2019-06-15T07:04:04.217Z,25.90
2019-06-15T07:05:09.458Z,25.90
2019-06-15T07:06:14.671Z,25.90
2019-06-15T07:07:19.415Z,25.90
2019-06-15T07:08:24.305Z,26.00
2019-06-15T07:09:29.007Z,26.00
2019-06-15T07:10:33.882Z,26.00
2019-06-15T07:11:38.581Z,26.00
2019-06-15T07:12:43.754Z,26.00
2019-06-15T07:13:48.522Z,26.00
2019-06-15T07:14:53.392Z,26.00
2019-06-15T07:15:58.082Z,26.10
2019-06-15T07:17:03.034Z,26.10
2019-06-15T07:18:07.830Z,26.10
2019-06-15T07:19:12.868Z,26.10
2019-06-15T07:20:17.638Z,26.10
2019-06-15T07:21:22.548Z,26.20
2019-06-15T07:22:27.232Z,26.20
2019-06-15T07:23:32.307Z,26.20
2019-06-15T07:24:37.196Z,26.20
2019-06-15T07:25:42.068Z,26.20
2019-06-15T07:26:46.794Z,26.20
2019-06-15T07:28:06.917Z,26.20
2019-06-15T07:28:58.196Z,26.20
2019-06-15T07:30:04.530Z,26.20
2019-06-15T07:31:09.261Z,26.20
2019-06-15T07:32:14.491Z,26.20
2019-06-15T07:33:19.164Z,26.20
2019-06-15T07:34:24.133Z,26.30
2019-06-15T07:35:28.889Z,26.30
2019-06-15T07:36:33.963Z,26.30
2019-06-15T07:37:38.732Z,26.30
2019-06-15T07:38:43.596Z,26.30
2019-06-15T07:39:48.270Z,26.30
2019-06-15T07:40:53.124Z,26.40
2019-06-15T07:41:57.787Z,26.30
2019-06-15T07:43:02.698Z,26.40
2019-06-15T07:44:07.363Z,26.40
2019-06-15T07:45:12.695Z,26.50
2019-06-15T07:46:17.457Z,26.40
2019-06-15T07:47:22.670Z,26.50
2019-06-15T07:48:27.445Z,26.50
2019-06-15T07:49:32.279Z,26.50
2019-06-15T07:50:37.036Z,26.50
2019-06-15T07:51:41.874Z,26.50
2019-06-15T07:52:46.653Z,26.60
2019-06-15T07:53:51.577Z,26.60
2019-06-15T07:54:56.307Z,26.60
2019-06-15T07:56:01.324Z,26.60
2019-06-15T07:57:06.031Z,26.60
2019-06-15T07:58:23.641Z,26.60
2019-06-15T07:59:17.379Z,26.60
2019-06-15T08:00:22.870Z,26.70
2019-06-15T08:01:27.685Z,26.70
2019-06-15T08:02:32.575Z,26.70
2019-06-15T08:03:37.231Z,26.70
2019-06-15T08:04:42.144Z,26.70
2019-06-15T08:05:46.945Z,26.80
2019-06-15T08:06:51.826Z,26.70
2019-06-15T08:07:56.608Z,26.80
2019-06-15T08:09:01.461Z,26.80
2019-06-15T08:10:08.530Z,26.80
2019-06-15T08:11:13.506Z,26.80
2019-06-15T08:12:18.322Z,26.90
2019-06-15T08:13:23.205Z,26.90
2019-06-15T08:14:27.878Z,26.90
2019-06-15T08:15:32.843Z,27.00
2019-06-15T08:16:37.630Z,27.00
2019-06-15T08:17:45.403Z,27.00
2019-06-15T08:18:48.861Z,27.10
2019-06-15T08:19:53.931Z,27.10
2019-06-15T08:20:58.749Z,27.10
2019-06-15T08:22:03.623Z,27.10
2019-06-15T08:23:08.288Z,27.10
2019-06-15T08:24:13.216Z,27.20
2019-06-15T08:25:17.990Z,27.20
2019-06-15T08:26:23.081Z,27.20
2019-06-15T08:27:27.949Z,27.20
2019-06-15T08:28:40.205Z,27.30
2019-06-15T08:29:39.263Z,27.30
2019-06-15T08:30:45.255Z,27.30
2019-06-15T08:31:50.369Z,27.30
2019-06-15T08:32:55.434Z,27.30
2019-06-15T08:34:00.310Z,27.40
2019-06-15T08:35:07.031Z,27.40
2019-06-15T08:36:11.794Z,27.40
2019-06-15T08:37:16.725Z,27.40
2019-06-15T08:38:21.421Z,27.40
2019-06-15T08:39:26.389Z,27.50
2019-06-15T08:40:31.052Z,27.50
2019-06-15T08:41:35.915Z,27.50
2019-06-15T08:42:40.663Z,27.60
2019-06-15T08:43:45.573Z,27.60
2019-06-15T08:44:50.292Z,27.70
2019-06-15T08:45:55.432Z,27.70
2019-06-15T08:47:00.536Z,27.70
2019-06-15T08:48:05.944Z,27.80
2019-06-15T08:49:10.632Z,27.80
2019-06-15T08:50:15.832Z,27.80
2019-06-15T08:51:20.525Z,27.90
2019-06-15T08:52:25.558Z,27.90
2019-06-15T08:53:30.239Z,28.00
2019-06-15T08:54:35.208Z,28.00
2019-06-15T08:55:40.356Z,28.00
2019-06-15T08:56:45.201Z,28.00
2019-06-15T08:57:49.979Z,28.10
2019-06-15T08:58:55.923Z,28.10
2019-06-15T09:00:00.939Z,28.10
2019-06-15T09:01:05.875Z,28.20
2019-06-15T09:02:10.776Z,28.20
2019-06-15T09:03:15.627Z,28.20
2019-06-15T09:04:20.348Z,28.20
2019-06-15T09:05:25.250Z,28.30
2019-06-15T09:06:30.077Z,28.30
2019-06-15T09:07:35.079Z,28.30
2019-06-15T09:08:39.753Z,28.30
2019-06-15T09:09:44.595Z,28.30
2019-06-15T09:10:49.374Z,28.40
2019-06-15T09:11:54.328Z,28.40
2019-06-15T09:12:59.139Z,28.40
2019-06-15T09:14:04.182Z,28.50
2019-06-15T09:15:11.071Z,28.50
2019-06-15T09:16:15.931Z,28.50
2019-06-15T09:17:20.752Z,28.50
2019-06-15T09:18:25.605Z,28.60
2019-06-15T09:19:30.405Z,28.60
2019-06-15T09:20:35.430Z,28.60
2019-06-15T09:21:40.090Z,28.60
2019-06-15T09:22:45.044Z,28.60
2019-06-15T09:23:49.702Z,28.70
2019-06-15T09:24:54.565Z,28.70
2019-06-15T09:25:59.325Z,28.70
2019-06-15T09:27:04.316Z,28.70
2019-06-15T09:28:09.004Z,28.70
2019-06-15T09:29:14.045Z,28.80
2019-06-15T09:30:18.781Z,28.80
2019-06-15T09:31:23.655Z,28.80
2019-06-15T09:32:28.500Z,28.90
2019-06-15T09:33:33.381Z,28.90
2019-06-15T09:34:38.045Z,28.90
2019-06-15T09:35:42.900Z,29.00
2019-06-15T09:36:47.584Z,29.00
2019-06-15T09:37:52.623Z,29.10
2019-06-15T09:38:57.444Z,29.10
2019-06-15T09:40:02.372Z,29.20
2019-06-15T09:41:07.074Z,29.20
2019-06-15T09:42:11.946Z,29.20
2019-06-15T09:43:16.633Z,29.30
2019-06-15T09:44:21.485Z,29.30
2019-06-15T09:45:26.159Z,29.40
2019-06-15T09:46:31.052Z,29.40
2019-06-15T09:47:35.795Z,29.40
2019-06-15T09:48:40.806Z,29.40
2019-06-15T09:49:45.625Z,29.40
2019-06-15T09:50:50.482Z,29.50
2019-06-15T09:51:55.262Z,29.50
2019-06-15T09:53:00.232Z,29.50
2019-06-15T09:54:05.265Z,29.50
2019-06-15T09:55:10.520Z,29.60
2019-06-15T09:56:15.202Z,29.60
2019-06-15T09:57:20.092Z,29.60
2019-06-15T09:58:24.848Z,29.60
2019-06-15T09:59:29.773Z,29.60
2019-06-15T10:00:34.465Z,29.70
2019-06-15T10:01:39.337Z,29.70
2019-06-15T10:02:44.105Z,29.70
2019-06-15T10:03:49.030Z,29.70
2019-06-15T10:04:53.780Z,29.70
2019-06-15T10:05:58.671Z,29.80
2019-06-15T10:07:03.361Z,29.80
2019-06-15T10:08:08.224Z,29.90
2019-06-15T10:09:13.604Z,29.90
2019-06-15T10:10:18.575Z,30.00
2019-06-15T10:11:23.325Z,30.00
2019-06-15T10:12:28.369Z,30.00
2019-06-15T10:13:33.182Z,30.10
2019-06-15T10:14:38.065Z,30.10
2019-06-15T10:15:44.230Z,30.10
2019-06-15T10:16:49.168Z,30.10
2019-06-15T10:17:53.827Z,30.10
2019-06-15T10:18:58.832Z,30.10
2019-06-15T10:20:05.085Z,30.10
2019-06-15T10:21:10.039Z,30.10
2019-06-15T10:22:14.690Z,30.10
2019-06-15T10:23:19.705Z,30.10
2019-06-15T10:24:24.530Z,30.20
2019-06-15T10:25:29.519Z,30.20
2019-06-15T10:26:34.208Z,30.20
2019-06-15T10:27:39.144Z,30.20
2019-06-15T10:28:43.798Z,30.20
2019-06-15T10:29:48.875Z,30.20
2019-06-15T10:30:53.612Z,30.20
2019-06-15T10:31:58.544Z,30.20
2019-06-15T10:33:03.221Z,30.30
2019-06-15T10:34:08.182Z,30.30
2019-06-15T10:35:13.433Z,30.40
2019-06-15T10:36:18.305Z,30.40
2019-06-15T10:37:22.971Z,30.40
2019-06-15T10:38:27.828Z,30.40
2019-06-15T10:39:32.845Z,30.40
2019-06-15T10:40:37.997Z,30.40
2019-06-15T10:41:42.845Z,30.50
2019-06-15T10:42:47.757Z,30.50
2019-06-15T10:43:52.501Z,30.50
2019-06-15T10:44:57.361Z,30.50
2019-06-15T10:46:02.097Z,30.60
2019-06-15T10:47:06.976Z,30.60
2019-06-15T10:48:11.718Z,30.70
2019-06-15T10:49:16.836Z,30.80
2019-06-15T10:50:21.665Z,30.80
2019-06-15T10:51:26.516Z,30.90
2019-06-15T10:52:31.347Z,30.90
2019-06-15T10:53:36.256Z,31.00
2019-06-15T10:54:40.955Z,31.00
2019-06-15T10:55:45.830Z,31.10
2019-06-15T10:56:50.501Z,31.20
2019-06-15T10:57:55.356Z,31.20
2019-06-15T10:59:00.041Z,31.20
2019-06-15T11:00:07.985Z,31.30
2019-06-15T11:01:12.643Z,31.30
2019-06-15T11:02:18.403Z,31.40
2019-06-15T11:03:23.116Z,31.40
2019-06-15T11:04:28.012Z,31.50
2019-06-15T11:05:32.843Z,31.60
2019-06-15T11:06:37.705Z,31.70
2019-06-15T11:07:42.382Z,31.80
2019-06-15T11:08:47.375Z,31.90
2019-06-15T11:09:52.265Z,31.90
2019-06-15T11:11:00.307Z,32.10
2019-06-15T11:12:05.451Z,32.20
2019-06-15T11:13:10.380Z,32.40
2019-06-15T11:14:15.384Z,32.50
2019-06-15T11:15:20.272Z,32.70
2019-06-15T11:16:25.523Z,32.80
2019-06-15T11:17:31.261Z,32.90
2019-06-15T11:18:36.388Z,33.00
2019-06-15T11:19:41.335Z,33.10
2019-06-15T11:20:46.972Z,33.20
2019-06-15T11:21:51.901Z,33.30
2019-06-15T11:22:56.569Z,33.30
2019-06-15T11:24:01.448Z,33.40
2019-06-15T11:25:07.069Z,33.50
2019-06-15T11:26:12.109Z,33.50
2019-06-15T11:27:16.772Z,33.50
2019-06-15T11:28:21.634Z,33.50
2019-06-15T11:29:26.851Z,33.50
2019-06-15T11:30:31.972Z,33.50
2019-06-15T11:31:36.829Z,33.50
2019-06-15T11:32:41.700Z,33.50
2019-06-15T11:33:46.447Z,33.50
2019-06-15T11:34:51.297Z,33.50
2019-06-15T11:35:55.964Z,33.40
2019-06-15T11:37:00.893Z,33.40
2019-06-15T11:38:05.941Z,33.30
2019-06-15T11:39:11.135Z,33.30
2019-06-15T11:40:16.158Z,33.30
2019-06-15T11:41:21.016Z,33.20
2019-06-15T11:42:25.720Z,33.20
2019-06-15T11:43:30.734Z,33.20
2019-06-15T11:44:35.417Z,33.10
2019-06-15T11:45:40.340Z,33.10
2019-06-15T11:46:45.219Z,33.10
2019-06-15T11:47:50.092Z,33.10
2019-06-15T11:48:54.739Z,33.20
2019-06-15T11:49:59.682Z,33.20
2019-06-15T11:51:04.483Z,33.20
2019-06-15T11:52:09.376Z,33.30
2019-06-15T11:53:14.133Z,33.30
2019-06-15T11:54:19.009Z,33.40
2019-06-15T11:55:36.147Z,33.40
2019-06-15T11:56:30.339Z,33.50
2019-06-15T11:57:35.038Z,33.50
2019-06-15T11:58:39.909Z,33.50
2019-06-15T11:59:44.669Z,33.60
2019-06-15T12:00:49.551Z,33.70
2019-06-15T12:01:54.273Z,33.70
2019-06-15T12:02:59.269Z,33.70
2019-06-15T12:04:03.960Z,33.80
2019-06-15T12:05:09.592Z,33.80
2019-06-15T12:06:14.417Z,33.90
2019-06-15T12:07:19.258Z,33.90
2019-06-15T12:08:24.053Z,34.00
2019-06-15T12:09:28.953Z,34.00
2019-06-15T12:10:33.884Z,34.10
2019-06-15T12:11:38.775Z,34.20
2019-06-15T12:12:43.502Z,34.20
2019-06-15T12:13:48.428Z,34.30
2019-06-15T12:14:53.105Z,34.30
2019-06-15T12:15:58.073Z,34.40
2019-06-15T12:17:02.916Z,34.50
2019-06-15T12:18:08.032Z,34.50
2019-06-15T12:19:12.707Z,34.50
2019-06-15T12:20:17.708Z,34.60
2019-06-15T12:21:22.413Z,34.60
2019-06-15T12:22:27.278Z,34.60
2019-06-15T12:24:36.306Z,34.70
2019-06-15T12:25:41.160Z,34.70
2019-06-15T12:26:46.031Z,34.80
2019-06-15T12:27:50.774Z,34.90
2019-06-15T12:28:55.702Z,34.90
2019-06-15T12:30:00.366Z,35.00
2019-06-15T12:31:05.197Z,35.00
2019-06-15T12:32:10.089Z,35.00
2019-06-15T12:33:14.960Z,35.00
2019-06-15T12:34:21.183Z,35.00
2019-06-15T12:35:26.345Z,35.00
2019-06-15T12:36:31.050Z,35.00
2019-06-15T12:37:35.890Z,34.90
2019-06-15T12:38:40.623Z,34.90
2019-06-15T12:39:45.483Z,34.80
2019-06-15T12:40:50.150Z,34.70
2019-06-15T12:41:55.294Z,34.70
2019-06-15T12:43:00.091Z,34.70
2019-06-15T12:44:05.031Z,34.60
2019-06-15T12:45:10.146Z,34.60
2019-06-15T12:46:15.099Z,34.50
2019-06-15T12:47:19.790Z,34.50
2019-06-15T12:48:24.720Z,34.40
2019-06-15T12:49:29.373Z,34.40
2019-06-15T12:50:34.228Z,34.40
2019-06-15T12:51:40.799Z,34.30
2019-06-15T12:52:45.642Z,34.30
2019-06-15T12:53:50.318Z,34.30
2019-06-15T12:54:55.204Z,34.20
2019-06-15T12:55:59.884Z,34.20
2019-06-15T12:57:04.920Z,34.10
2019-06-15T12:58:09.799Z,34.10
2019-06-15T12:59:14.884Z,34.10
2019-06-15T13:00:22.768Z,34.00
2019-06-15T13:01:27.624Z,34.00
2019-06-15T13:02:32.296Z,33.90
2019-06-15T13:03:37.241Z,33.80
2019-06-15T13:04:41.997Z,33.90
2019-06-15T13:05:46.867Z,33.80
2019-06-15T13:06:51.693Z,33.80
2019-06-15T13:07:56.728Z,33.80
2019-06-15T13:09:01.628Z,33.80
2019-06-15T13:10:08.345Z,33.70
2019-06-15T13:11:13.009Z,33.70
2019-06-15T13:12:17.907Z,33.70
2019-06-15T13:13:22.574Z,33.60
2019-06-15T13:14:28.590Z,33.60
2019-06-15T13:15:33.657Z,33.60
2019-06-15T13:16:39.907Z,33.60
2019-06-15T13:17:44.927Z,33.50
2019-06-15T13:18:49.822Z,33.60
2019-06-15T13:19:54.647Z,33.60
2019-06-15T13:20:59.514Z,33.70
2019-06-15T13:22:06.378Z,33.80
2019-06-15T13:23:10.969Z,33.90
2019-06-15T13:24:15.691Z,34.00
2019-06-15T13:25:20.604Z,34.10
2019-06-15T13:26:25.507Z,34.20
2019-06-15T13:27:30.450Z,34.30
2019-06-15T13:28:35.166Z,34.50
2019-06-15T13:29:40.294Z,34.60
2019-06-15T13:30:45.111Z,34.80
2019-06-15T13:31:50.206Z,34.90
2019-06-15T13:32:55.058Z,35.00
2019-06-15T13:34:00.118Z,35.10
2019-06-15T13:35:07.610Z,35.20
2019-06-15T13:36:12.690Z,35.30
2019-06-15T13:37:17.700Z,35.30
2019-06-15T13:38:22.548Z,35.30
2019-06-15T13:39:27.217Z,35.30
2019-06-15T13:40:32.096Z,35.30
2019-06-15T13:41:36.994Z,35.20
2019-06-15T13:42:42.319Z,35.20
2019-06-15T13:43:46.979Z,35.10
2019-06-15T13:44:51.852Z,35.00
2019-06-15T13:45:56.568Z,34.90
2019-06-15T13:47:01.459Z,34.80
2019-06-15T13:48:06.180Z,34.70
2019-06-15T13:49:11.038Z,34.60
2019-06-15T13:50:16.040Z,34.50
2019-06-15T13:51:21.124Z,34.40
2019-06-15T13:52:25.878Z,34.30
2019-06-15T13:53:30.936Z,34.20
2019-06-15T13:54:35.716Z,34.10
2019-06-15T13:55:40.583Z,34.00
2019-06-15T13:56:45.363Z,33.80
2019-06-15T13:57:50.280Z,33.70
2019-06-15T13:58:54.955Z,33.60
2019-06-15T13:59:59.832Z,33.50
2019-06-15T14:01:04.496Z,33.40